Central, New Mexico
Current Conditions -  °F | °C
As of 4:35 PM on Monday 20 Oct 2014 (Local Time) from KSVC Reporting Station
Few Clouds Few Clouds  
Wind Chill: 64°   Ceiling: Unl
Heat Index: 64°   Visibility: 10mi
Dew Point: 48°   Wind: 8mph
Humidity: 56%   Direction: 170°S
Pressure: 30.11"   Gusts: NA
Location:  32.8027°N, 108.161°W
Report Text: KSVC 202235Z AUTO 17007KT 10SM FEW038 18/09 A3011 RMK AO2
Loading
Personal Weather Stations






























Interactive Weather Map
Tropical Storm Tracking
New forecast layout! Learn more

10-Day Weather Forecast

Advertisements
Track Severe Weather on mobile